Eau Claire, WI

5:27 PM CDT on August 04, 2015 (GMT -0500)
WIDOT | | Change Station
CLOSE
Current Station
Personal Weather Station
Location: Altoona, WI
Elevation: 880 ft
Nearby Weather Stations

Elev 880 ft 44.77 °N, 91.42 °W | Updated 12 days ago

Partly Cloudy
Partly Cloudy
78 °F
Feels Like 78 °F
N
7
Wind Variable Wind from WNW
Gusts mph

Today
High -- | Low -- °F
--% Chance of Precip.
Yesterday
High -- | Low -- °F
Precip. -- in
5:54 AM 8:27 PM
Waning Gibbous, 74% visible
Pressure 29.96 in
Visibility 10.0 miles
Clouds Few 6000 ft
Overcast 8000 ft
Dew Point 52 °F
Humidity 40%
Rainfall in
Snow Depth Not available.
UV 1 out of 12
Pollen 6.90 out of 12
Air Quality Not available.
Flu Activity Not available.
METAR KEAU 042156Z 31004KT 10SM FEW060 OVC080 26/11 A2997 RMK AO2 SLP145 T02560111

More Conditions Fewer Conditions

Pressure 29.96 in
Visibility 10.0 miles
Clouds Few 6000 ft
Overcast 8000 ft
Dew Point 52 °F
Humidity 40%
Rainfall in
Snow Depth Not available.
UV 1 out of 12
Pollen 6.90 out of 12
Air Quality Not available.
Flu Activity Not available.
METAR KEAU 042156Z 31004KT 10SM FEW060 OVC080 26/11 A2997 RMK AO2 SLP145 T02560111

More Conditions Fewer Conditions

10-Day Weather Forecast

×

Almanac

Astronomy

Aug. 04, 2015 Rise Set
Actual Time
Civil Twilight
Nautical Twilight
Astronomical Twilight
Moon
Length of Visible Light
Length of Day
Tomorrow will be .
, % of the Moon is Illuminated

Today's Extremes

State Highs State Lows

Community

WunderPhotos

Upload Photos

1,844,007 photos uploaded!

WunderBlogs® & News

Nearby

Air Quality

  Air Quality AQ Index Pollutant
Not available.

Snow Depth

Station Depth Elevation

Earthquake Activity

City Distance Mag. Time & Date
Minimum magnitude displayed is 2.5.

Coastal Water Temperatures

Place Temperature

Stations

Nearby Weather Stations

Station Location Temp. Windchill Dew Point Humidity Wind Precip. Elev Updated Type